Time;durP1;ratioP1;P1;durP2;ratioP2;P2;SDS_P1;SDS_P2;PMS_P1;PMS_P2;Temp;Humidity;BMP_temperature;BMP_pressure;BME280_temperature;BME280_humidity;BME280_pressure;Samples;Min_cycle;Max_cycle;Signal;HPM_P1;HPM_P2
2023/04/12 00:00:31;;;;;;;;;2.00;1.00;;;;;13.35;100.00;100124.25;5034364;28;60510;-70
2023/04/12 00:02:58;;;;;;;;;2.00;2.00;;;;;13.38;100.00;100137.47;5034223;28;65863;-70
2023/04/12 00:05:26;;;;;;;;;1.00;1.00;;;;;13.40;100.00;100148.06;5035130;28;45328;-71
2023/04/12 00:07:53;;;;;;;;;3.00;1.67;;;;;13.38;100.00;100110.97;5029895;28;46654;-70
2023/04/12 00:10:20;;;;;;;;;3.00;1.00;;;;;13.43;100.00;100105.59;5034526;28;46483;-71
2023/04/12 00:12:46;;;;;;;;;4.00;1.00;;;;;13.44;100.00;100121.50;5034669;28;45432;-71
2023/04/12 00:15:11;;;;;;;;;1.33;1.33;;;;;13.44;100.00;100113.53;5035557;28;45310;-71
2023/04/12 00:17:37;;;;;;;;;2.00;2.00;;;;;13.41;100.00;100102.06;5034099;28;45456;-71
2023/04/12 00:20:10;;;;;;;;;1.67;1.00;;;;;13.41;100.00;100095.00;5038557;28;61244;-70
2023/04/12 00:22:36;;;;;;;;;2.00;2.00;;;;;13.40;100.00;100085.28;5038127;28;45290;-70
2023/04/12 00:25:01;;;;;;;;;3.00;1.00;;;;;13.41;100.00;100083.50;5038285;28;45332;-71
2023/04/12 00:27:26;;;;;;;;;2.33;1.33;;;;;13.40;100.00;100073.81;5038569;28;45511;-71
2023/04/12 00:29:52;;;;;;;;;1.33;1.33;;;;;13.40;100.00;100077.34;5036608;28;63646;-71
2023/04/12 00:32:17;;;;;;;;;4.67;2.33;;;;;13.40;100.00;100066.72;5020807;28;59772;-70
2023/04/12 00:34:43;;;;;;;;;3.33;1.33;;;;;13.40;100.00;100060.56;5038154;28;45458;-71
2023/04/12 00:37:08;;;;;;;;;1.00;1.00;;;;;13.36;100.00;100043.78;5037671;28;47404;-70
2023/04/12 00:39:33;;;;;;;;;2.67;1.00;;;;;13.40;100.00;100050.81;5037530;28;45528;-71
2023/04/12 00:42:03;;;;;;;;;2.33;2.00;;;;;13.38;100.00;100060.56;5037870;28;45199;-71
2023/04/12 00:44:28;;;;;;;;;7.33;2.00;;;;;13.38;100.00;100039.38;5041883;28;45515;-71
2023/04/12 00:46:53;;;;;;;;;1.33;1.33;;;;;13.41;100.00;100035.78;5038596;28;46343;-70
2023/04/12 00:49:19;;;;;;;;;3.00;2.67;;;;;13.39;100.00;100019.03;5037233;28;62507;-71
2023/04/12 00:51:44;;;;;;;;;2.67;2.00;;;;;13.40;100.00;100011.03;5038496;28;45388;-71
2023/04/12 00:54:10;;;;;;;;;3.00;2.00;;;;;13.40;100.00;100004.88;5036729;28;45353;-70
2023/04/12 00:56:36;;;;;;;;;2.00;2.00;;;;;13.38;100.00;100004.03;5038353;28;45598;-70
2023/04/12 00:59:02;;;;;;;;;4.00;2.00;;;;;13.35;100.00;100008.44;5037767;28;46434;-71
2023/04/12 01:01:27;;;;;;;;;5.00;1.67;;;;;13.39;100.00;100003.13;5037946;28;45338;-70
2023/04/12 01:03:53;;;;;;;;;1.33;1.33;;;;;13.36;100.00;99996.06;5037636;28;45494;-71
2023/04/12 01:06:21;;;;;;;;;6.33;2.00;;;;;13.38;100.00;99982.81;5014327;28;59779;-70
2023/04/12 01:08:59;;;;;;;;;4.00;2.00;;;;;13.39;100.00;99958.91;5033106;28;45428;-70
2023/04/12 01:11:24;;;;;;;;;1.00;1.00;;;;;13.40;100.00;99957.13;5037055;28;45479;-70
2023/04/12 01:13:57;;;;;;;;;5.00;2.00;;;;;13.39;100.00;99948.31;5038472;28;45347;-70
2023/04/12 01:16:32;;;;;;;;;3.00;2.00;;;;;13.40;100.00;99950.06;5037617;28;45477;-70
2023/04/12 01:19:03;;;;;;;;;2.00;2.00;;;;;13.42;100.00;99957.97;5038055;28;45769;-71
2023/04/12 01:21:44;;;;;;;;;1.33;1.33;;;;;13.42;100.00;99953.53;5039326;28;45233;-70
2023/04/12 01:24:37;;;;;;;;;2.00;2.00;;;;;13.43;100.00;99954.44;5020180;28;45326;-70
2023/04/12 01:27:10;;;;;;;;;2.00;2.00;;;;;13.42;100.00;99942.06;5019084;28;45364;-71
2023/04/12 01:29:36;;;;;;;;;3.00;1.00;;;;;13.43;100.00;99939.41;5037387;28;47180;-70
2023/04/12 01:32:02;;;;;;;;;5.00;2.00;;;;;13.44;100.00;99927.03;5017720;28;45338;-71
2023/04/12 01:34:29;;;;;;;;;1.67;1.67;;;;;13.45;100.00;99911.09;5017944;28;45443;-71
2023/04/12 01:36:56;;;;;;;;;2.00;2.00;;;;;13.45;100.00;99916.38;5015996;28;45413;-70
2023/04/12 01:39:21;;;;;;;;;1.67;1.67;;;;;13.45;100.00;99910.22;5018464;28;46583;-70
2023/04/12 01:41:47;;;;;;;;;5.33;1.00;;;;;13.44;100.00;99898.72;5036514;28;58675;-70
2023/04/12 01:44:17;;;;;;;;;1.00;1.00;;;;;13.47;100.00;99897.78;5036979;28;45524;-71
2023/04/12 01:46:43;;;;;;;;;1.67;1.00;;;;;13.49;100.00;99885.41;5034590;28;45378;-70
2023/04/12 01:49:10;;;;;;;;;3.67;2.67;;;;;13.48;100.00;99887.19;5018966;28;45850;-70
2023/04/12 01:51:39;;;;;;;;;1.00;1.00;;;;;13.51;100.00;99878.28;5037704;28;45343;-70
2023/04/12 01:54:10;;;;;;;;;1.00;1.00;;;;;13.50;100.00;99871.25;5035685;28;45436;-70
2023/04/12 01:56:37;;;;;;;;;1.67;1.67;;;;;13.50;100.00;99871.25;5019729;28;45561;-70
2023/04/12 01:59:03;;;;;;;;;5.00;1.00;;;;;13.53;100.00;99873.81;5036058;28;46796;-71
2023/04/12 02:01:29;;;;;;;;;1.33;1.33;;;;;13.49;100.00;99862.41;5018587;28;61037;-71
2023/04/12 02:03:58;;;;;;;;;1.00;0.67;;;;;13.50;100.00;99856.19;5019216;28;45569;-70
2023/04/12 02:06:23;;;;;;;;;6.33;1.00;;;;;13.49;100.00;99849.16;5019210;28;45359;-70
2023/04/12 02:08:49;;;;;;;;;4.00;1.00;;;;;13.50;100.00;99844.72;5034554;28;61711;-70
2023/04/12 02:11:14;;;;;;;;;3.00;1.00;;;;;13.53;100.00;99844.66;5036026;28;45397;-70
2023/04/12 02:13:40;;;;;;;;;1.67;0.00;;;;;13.51;100.00;99831.41;5036887;28;52583;-71
2023/04/12 02:16:09;;;;;;;;;4.67;2.00;;;;;13.54;100.00;99830.50;5030726;28;45248;-70
2023/04/12 02:18:35;;;;;;;;;1.00;1.00;;;;;13.57;100.00;99814.53;5033334;28;45734;-70
2023/04/12 02:21:00;;;;;;;;;2.00;1.00;;;;;13.54;100.00;99811.94;5037094;28;45340;-71
2023/04/12 02:23:25;;;;;;;;;1.00;1.00;;;;;13.54;100.00;99804.00;5035667;28;45419;-71
2023/04/12 02:25:51;;;;;;;;;2.00;1.00;;;;;13.55;100.00;99795.13;5031466;28;45504;-71
2023/04/12 02:28:16;;;;;;;;;4.00;1.00;;;;;13.54;100.00;99796.03;5035433;28;59754;-70
2023/04/12 02:30:41;;;;;;;;;0.00;0.00;;;;;13.57;100.00;99785.34;5035882;28;45351;-71
2023/04/12 02:33:10;;;;;;;;;1.00;1.00;;;;;13.55;100.00;99780.09;5032672;28;61097;-70
2023/04/12 02:35:36;;;;;;;;;1.33;0.00;;;;;13.58;100.00;99784.44;5035112;28;45367;-70
2023/04/12 02:38:07;;;;;;;;;2.33;1.00;;;;;13.59;100.00;99775.59;5030152;28;46622;-71
2023/04/12 02:40:42;;;;;;;;;0.00;0.00;;;;;13.60;100.00;99766.75;5035005;28;45301;-71
2023/04/12 02:43:08;;;;;;;;;1.00;1.00;;;;;13.60;100.00;99767.63;5032657;28;45528;-71
2023/04/12 02:45:33;;;;;;;;;2.67;0.00;;;;;13.57;100.00;99770.31;5036409;28;45469;-71
2023/04/12 02:47:59;;;;;;;;;1.67;0.33;;;;;13.57;100.00;99757.03;5036871;28;46095;-71
2023/04/12 02:50:24;;;;;;;;;0.67;0.00;;;;;13.57;100.00;99750.88;5035919;28;45859;-71
2023/04/12 02:52:50;;;;;;;;;0.00;0.00;;;;;13.62;100.00;99765.78;5033713;28;46787;-70
2023/04/12 02:55:16;;;;;;;;;0.00;0.00;;;;;13.65;100.00;99764.88;5036062;28;45589;-72
2023/04/12 02:57:47;;;;;;;;;0.00;0.00;;;;;13.60;100.00;99767.63;5035476;28;46707;-71
2023/04/12 03:00:16;;;;;;;;;0.00;0.00;;;;;13.59;100.00;99788.88;5036682;28;45318;-71
2023/04/12 03:02:42;;;;;;;;;0.33;0.33;;;;;13.60;100.00;99810.06;5032027;28;45610;-71
2023/04/12 03:05:08;;;;;;;;;0.00;0.00;;;;;13.55;100.00;99819.00;5029331;28;45591;-71
2023/04/12 03:07:34;;;;;;;;;0.00;0.00;;;;;13.49;100.00;99814.66;5033686;28;46399;-71
2023/04/12 03:10:00;;;;;;;;;0.00;0.00;;;;;13.47;100.00;99832.38;5023015;28;45300;-71
2023/04/12 03:12:25;;;;;;;;;0.00;0.00;;;;;13.35;100.00;99821.97;5035795;28;45285;-71
2023/04/12 03:14:51;;;;;;;;;0.00;0.00;;;;;13.14;100.00;99822.28;5034251;28;45333;-72
2023/04/12 03:17:16;;;;;;;;;0.00;0.00;;;;;12.96;100.00;99812.84;5034329;28;66890;-72
2023/04/12 03:19:42;;;;;;;;;1.00;0.00;;;;;12.74;100.00;99815.81;5026889;28;45257;-71
2023/04/12 03:22:07;;;;;;;;;0.00;0.00;;;;;12.57;100.00;99804.59;5025425;28;45634;-72
2023/04/12 03:24:33;;;;;;;;;0.00;0.00;;;;;12.44;100.00;99803.00;5027397;28;49310;-71
2023/04/12 03:27:02;;;;;;;;;0.67;0.00;;;;;12.31;100.00;99794.34;5034491;28;45951;-71
2023/04/12 03:29:28;;;;;;;;;2.33;0.00;;;;;12.27;100.00;99788.19;5031142;28;45524;-71
2023/04/12 03:31:53;;;;;;;;;0.00;0.00;;;;;12.23;100.00;99775.91;5035034;28;45323;-71
2023/04/12 03:34:18;;;;;;;;;0.00;0.00;;;;;12.21;100.00;99779.47;5036263;28;45646;-71
2023/04/12 03:36:44;;;;;;;;;1.00;0.00;;;;;12.18;100.00;99777.72;5035458;28;50533;-71
2023/04/12 03:39:10;;;;;;;;;0.00;0.00;;;;;12.18;100.00;99777.72;5034782;28;45451;-71
2023/04/12 03:41:35;;;;;;;;;0.00;0.00;;;;;12.19;100.00;99783.88;5036193;28;45576;-71
2023/04/12 03:44:00;;;;;;;;;0.00;0.00;;;;;12.18;100.00;99780.38;5035889;28;45459;-72
2023/04/12 03:46:26;;;;;;;;;0.00;0.00;;;;;12.17;100.00;99780.41;5034744;28;51993;-71
2023/04/12 03:48:51;;;;;;;;;0.00;0.00;;;;;12.16;100.00;99782.16;5033018;28;45457;-71
2023/04/12 03:51:17;;;;;;;;;1.00;0.00;;;;;12.19;100.00;99778.59;5034554;28;45652;-72
2023/04/12 03:53:42;;;;;;;;;0.00;0.00;;;;;12.17;100.00;99775.09;5035563;28;54560;-72
2023/04/12 03:56:08;;;;;;;;;0.00;0.00;;;;;12.17;100.00;99769.81;5031847;28;60213;-71
2023/04/12 03:58:34;;;;;;;;;0.00;0.00;;;;;12.13;100.00;99760.16;5034428;28;45318;-71
2023/04/12 04:01:04;;;;;;;;;1.00;0.00;;;;;12.16;100.00;99761.00;5033070;28;45330;-71
2023/04/12 04:03:36;;;;;;;;;0.00;0.00;;;;;12.20;100.00;99775.06;5035215;28;45331;-71
2023/04/12 04:06:01;;;;;;;;;0.00;0.00;;;;;12.22;100.00;99765.34;5031505;28;45744;-71
2023/04/12 04:08:27;;;;;;;;;0.00;0.00;;;;;12.21;100.00;99761.81;5035246;28;45419;-71
2023/04/12 04:10:55;;;;;;;;;0.00;0.00;;;;;12.25;100.00;99774.13;5034356;28;45221;-72
2023/04/12 04:13:20;;;;;;;;;0.00;0.00;;;;;12.25;100.00;99767.91;5035810;28;45292;-71
2023/04/12 04:15:48;;;;;;;;;0.00;0.00;;;;;12.27;100.00;99766.16;5034335;28;47488;-71
2023/04/12 04:18:13;;;;;;;;;0.00;0.00;;;;;12.27;100.00;99772.31;5035601;28;45499;-71
2023/04/12 04:20:39;;;;;;;;;0.00;0.00;;;;;12.25;100.00;99762.63;5006446;28;56555;-71
2023/04/12 04:23:05;;;;;;;;;0.00;0.00;;;;;12.27;100.00;99766.16;5035431;28;45404;-71
2023/04/12 04:25:32;;;;;;;;;0.00;0.00;;;;;12.26;100.00;99754.69;5034705;28;47482;-71
2023/04/12 04:27:58;;;;;;;;;0.00;0.00;;;;;12.29;100.00;99759.06;5034373;28;45412;-71
2023/04/12 04:30:24;;;;;;;;;0.00;0.00;;;;;12.27;100.00;99766.16;5034249;28;45292;-71
2023/04/12 04:32:49;;;;;;;;;0.00;0.00;;;;;12.24;100.00;99755.59;5034781;28;45400;-71
2023/04/12 04:35:16;;;;;;;;;0.00;0.00;;;;;12.23;100.00;99756.50;5033679;28;58421;-71
2023/04/12 04:37:42;;;;;;;;;1.67;0.00;;;;;12.21;100.00;99745.06;5031619;28;45479;-72
2023/04/12 04:40:08;;;;;;;;;0.00;0.00;;;;;12.24;100.00;99756.47;5030059;28;45475;-71
2023/04/12 04:42:33;;;;;;;;;0.00;0.00;;;;;12.26;100.00;99754.69;5034866;28;45948;-71
2023/04/12 04:45:03;;;;;;;;;0.00;0.00;;;;;12.27;100.00;99756.44;5032583;28;47423;-72
2023/04/12 04:47:29;;;;;;;;;0.00;0.00;;;;;12.29;100.00;99751.13;5031057;28;45539;-71
2023/04/12 04:49:58;;;;;;;;;0.00;0.00;;;;;12.30;100.00;99745.81;5026778;28;46425;-74
2023/04/12 04:52:24;;;;;;;;;0.00;0.00;;;;;12.28;100.00;99741.44;5033806;28;45598;-73
2023/04/12 04:54:49;;;;;;;;;0.00;0.00;;;;;12.29;100.00;99746.69;5033387;28;46521;-72
2023/04/12 04:57:15;;;;;;;;;0.00;0.00;;;;;12.28;100.00;99759.97;5033616;28;46272;-73
2023/04/12 04:59:40;;;;;;;;;0.00;0.00;;;;;12.28;100.00;99766.13;5034369;28;45692;-72
2023/04/12 05:02:06;;;;;;;;;0.33;0.33;;;;;12.19;100.00;99723.88;5032815;28;55968;-74
2023/04/12 05:04:31;;;;;;;;;1.00;1.00;;;;;12.17;100.00;99754.81;5033975;28;46324;-73
2023/04/12 05:06:57;;;;;;;;;0.00;0.00;;;;;12.14;100.00;99769.84;5036968;28;45471;-72
2023/04/12 05:09:22;;;;;;;;;1.00;1.00;;;;;12.06;100.00;99778.75;5031292;28;57563;-74
2023/04/12 05:11:47;;;;;;;;;3.33;1.00;;;;;12.04;100.00;99793.78;5035124;28;45422;-75
2023/04/12 05:14:13;;;;;;;;;1.00;1.00;;;;;11.95;100.00;99791.22;5034059;28;55155;-73
2023/04/12 05:16:38;;;;;;;;;2.00;1.00;;;;;11.88;100.00;99792.19;5034904;28;45668;-72
2023/04/12 05:19:03;;;;;;;;;1.00;1.00;;;;;11.73;100.00;99785.28;5034146;28;45639;-72
2023/04/12 05:21:29;;;;;;;;;0.00;0.00;;;;;11.61;100.00;99795.97;5036898;28;54667;-72
2023/04/12 05:23:55;;;;;;;;;0.00;0.00;;;;;11.57;100.00;99803.97;5036536;28;46460;-71
2023/04/12 05:26:20;;;;;;;;;0.00;0.00;;;;;11.42;100.00;99792.63;5035215;28;55578;-71
2023/04/12 05:28:46;;;;;;;;;1.00;1.00;;;;;11.34;100.00;99807.66;5037411;28;45301;-71
2023/04/12 05:31:11;;;;;;;;;0.00;0.00;;;;;11.26;100.00;99818.31;5038086;28;45553;-72
2023/04/12 05:33:37;;;;;;;;;0.00;0.00;;;;;11.19;100.00;99816.63;5037371;28;45605;-72
2023/04/12 05:36:03;;;;;;;;;2.00;0.33;;;;;11.19;100.00;99828.94;5036575;28;45292;-72
2023/04/12 05:38:28;;;;;;;;;0.00;0.00;;;;;11.18;100.00;99833.31;5037423;28;46191;-72
2023/04/12 05:40:54;;;;;;;;;0.00;0.00;;;;;11.20;100.00;99838.63;5034366;28;60127;-72
2023/04/12 05:43:19;;;;;;;;;0.00;0.00;;;;;11.21;100.00;99833.31;5035922;28;45779;-73
2023/04/12 05:45:44;;;;;;;;;0.00;0.00;;;;;11.17;100.00;99831.59;5036029;28;66258;-72
2023/04/12 05:48:10;;;;;;;;;3.00;0.00;;;;;11.16;100.00;99829.84;5034555;28;45399;-71
2023/04/12 05:50:35;;;;;;;;;1.00;1.00;;;;;11.16;100.00;99836.88;5034512;28;45341;-72
2023/04/12 05:53:01;;;;;;;;;0.00;0.00;;;;;11.16;100.00;99844.81;5018196;28;62453;-72
2023/04/12 05:55:27;;;;;;;;;0.00;0.00;;;;;11.16;100.00;99850.97;5036477;28;45908;-71
2023/04/12 05:57:53;;;;;;;;;0.67;0.00;;;;;11.12;100.00;99856.28;5037794;28;45272;-72
2023/04/12 06:00:20;;;;;;;;;2.00;0.00;;;;;11.10;100.00;99863.34;5036243;28;45303;-72
2023/04/12 06:02:46;;;;;;;;;2.00;0.67;;;;;11.06;100.00;99858.97;5037709;28;45738;-72
2023/04/12 06:05:11;;;;;;;;;1.00;1.00;;;;;11.07;100.00;99847.50;5035878;28;45510;-72
2023/04/12 06:07:46;;;;;;;;;2.00;1.00;;;;;11.09;100.00;99848.41;5037018;28;45516;-74
2023/04/12 06:10:14;;;;;;;;;1.00;1.00;;;;;11.12;100.00;99843.06;5039791;28;46530;-73
2023/04/12 06:12:39;;;;;;;;;0.33;0.33;;;;;11.16;100.00;99843.03;5016603;28;46522;-73
2023/04/12 06:15:05;;;;;;;;;2.00;2.00;;;;;11.22;100.00;99839.47;5019880;28;45517;-74
2023/04/12 06:17:30;;;;;;;;;2.00;1.00;;;;;11.24;100.00;99840.38;5030070;28;45620;-73
2023/04/12 06:19:56;;;;;;;;;2.00;2.00;;;;;11.35;100.00;99854.38;5036967;28;45419;-73
2023/04/12 06:22:21;;;;;;;;;3.00;1.33;;;;;11.32;100.00;99857.03;5034588;28;46172;-75
2023/04/12 06:24:47;;;;;;;;;2.00;2.00;;;;;11.24;100.00;99853.56;5035100;28;45541;-76
2023/04/12 06:27:12;;;;;;;;;2.00;2.00;;;;;11.24;100.00;99848.28;5036305;28;51116;-76
2023/04/12 06:29:37;;;;;;;;;2.00;2.00;;;;;11.17;100.00;99851.84;5036049;28;46105;-75
2023/04/12 06:32:03;;;;;;;;;3.33;2.00;;;;;11.15;100.00;99861.56;5035860;28;45319;-74
2023/04/12 06:34:28;;;;;;;;;1.67;1.67;;;;;11.12;100.00;99866.84;5036745;28;45336;-74
2023/04/12 06:36:54;;;;;;;;;2.00;2.00;;;;;11.12;100.00;99853.63;5036255;28;45296;-73
2023/04/12 06:39:19;;;;;;;;;4.00;2.33;;;;;11.15;100.00;99845.72;5033714;28;45419;-74
2023/04/12 06:41:49;;;;;;;;;4.00;3.00;;;;;11.22;100.00;99848.28;5032928;28;46625;-74
2023/04/12 06:44:15;;;;;;;;;2.33;2.33;;;;;11.30;100.00;99848.25;5047503;28;45352;-74
2023/04/12 06:46:40;;;;;;;;;3.67;3.67;;;;;11.27;100.00;99851.75;5035356;28;45509;-74
2023/04/12 06:49:06;;;;;;;;;1.33;1.33;;;;;11.24;100.00;99861.50;5018517;28;55087;-74
2023/04/12 06:51:31;;;;;;;;;1.00;1.00;;;;;11.24;100.00;99856.22;5032346;28;49258;-74
2023/04/12 06:53:56;;;;;;;;;4.67;1.00;;;;;11.24;100.00;99872.06;5036413;28;45416;-73
2023/04/12 06:56:22;;;;;;;;;2.00;1.00;;;;;11.21;100.00;99865.03;5036576;28;45400;-73
2023/04/12 06:58:48;;;;;;;;;2.67;0.67;;;;;11.25;100.00;99865.91;5016310;28;45479;-73
2023/04/12 07:01:13;;;;;;;;;2.00;2.00;;;;;11.21;100.00;99859.75;5031457;28;45844;-73
2023/04/12 07:03:39;;;;;;;;;4.00;1.00;;;;;11.24;100.00;99854.44;5033252;28;45389;-73
2023/04/12 07:06:05;;;;;;;;;1.00;1.00;;;;;11.25;100.00;99850.03;5026833;28;45261;-74
2023/04/12 07:08:35;;;;;;;;;1.00;1.00;;;;;11.32;100.00;99850.84;5015446;28;45325;-73
2023/04/12 07:11:00;;;;;;;;;0.00;0.00;;;;;11.36;100.00;99840.25;5029197;28;46015;-75
2023/04/12 07:13:26;;;;;;;;;0.00;0.00;;;;;11.40;100.00;99830.50;5033807;28;45458;-74
2023/04/12 07:15:52;;;;;;;;;0.67;0.67;;;;;11.49;100.00;99847.19;5034417;28;45288;-75
2023/04/12 07:18:17;;;;;;;;;0.00;0.00;;;;;11.51;100.00;99848.06;5027365;28;45475;-74
2023/04/12 07:20:49;;;;;;;;;0.00;0.00;;;;;11.61;100.00;99853.25;5032962;28;46335;-75
2023/04/12 07:23:15;;;;;;;;;1.67;0.00;;;;;11.66;100.00;99836.44;5015064;28;45685;-76
2023/04/12 07:25:40;;;;;;;;;0.00;0.00;;;;;11.70;100.00;99842.59;5032668;28;45515;-76
2023/04/12 07:28:05;;;;;;;;;2.00;0.00;;;;;11.72;100.00;99827.59;5035319;28;45389;-76
2023/04/12 07:30:31;;;;;;;;;1.00;1.00;;;;;11.80;100.00;99828.38;5032021;28;47447;-76
2023/04/12 07:32:59;;;;;;;;;1.00;0.00;;;;;11.87;100.00;99827.47;5027579;28;45332;-76
2023/04/12 07:35:26;;;;;;;;;0.67;0.00;;;;;11.90;100.00;99830.09;5032254;28;45415;-76
2023/04/12 07:37:52;;;;;;;;;0.00;0.00;;;;;11.97;100.00;99828.25;5031651;28;45265;-76
2023/04/12 07:40:17;;;;;;;;;0.00;0.00;;;;;11.98;100.00;99820.28;5031939;28;47001;-75
2023/04/12 07:42:43;;;;;;;;;0.00;0.00;;;;;12.04;100.00;99822.88;5036022;28;45331;-75
2023/04/12 07:45:08;;;;;;;;;0.00;0.00;;;;;12.10;100.00;99823.72;5031728;28;60323;-75
2023/04/12 07:47:34;;;;;;;;;0.00;0.00;;;;;12.06;100.00;99817.56;5033272;28;45399;-76
2023/04/12 07:49:59;;;;;;;;;0.00;0.00;;;;;12.04;100.00;99822.00;5030460;28;62292;-76
2023/04/12 07:52:25;;;;;;;;;0.00;0.00;;;;;12.01;100.00;99820.25;5034908;28;45488;-76
2023/04/12 07:54:50;;;;;;;;;0.00;0.00;;;;;12.03;100.00;99823.75;5035838;28;45370;-76
2023/04/12 07:57:16;;;;;;;;;1.67;0.00;;;;;12.11;100.00;99833.41;5032537;28;45589;-76
2023/04/12 07:59:41;;;;;;;;;0.00;0.00;;;;;12.19;100.00;99837.69;5034434;28;46520;-76
2023/04/12 08:02:06;;;;;;;;;0.67;0.00;;;;;12.31;100.00;99842.00;5027025;28;63539;-76
2023/04/12 08:04:32;;;;;;;;;0.33;0.00;;;;;12.39;100.00;99842.75;5031073;28;52986;-76
2023/04/12 08:06:57;;;;;;;;;2.67;1.00;;;;;12.42;100.00;99844.50;5034019;28;45238;-76
2023/04/12 08:09:23;;;;;;;;;0.00;0.00;;;;;12.44;100.00;99856.81;5034227;28;46684;-77
2023/04/12 08:11:49;;;;;;;;;3.00;0.00;;;;;12.45;100.00;99858.56;5024568;28;45506;-76
2023/04/12 08:14:15;;;;;;;;;2.00;0.67;;;;;12.47;100.00;99863.84;5019398;28;45493;-76
2023/04/12 08:16:40;;;;;;;;;0.00;0.00;;;;;12.46;100.00;99867.38;5031291;28;45414;-76
2023/04/12 08:19:06;;;;;;;;;0.00;0.00;;;;;12.50;100.00;99884.97;5031365;28;45608;-76
2023/04/12 08:21:32;;;;;;;;;1.00;0.00;;;;;12.52;100.00;99870.84;5035875;28;45356;-76
2023/04/12 08:23:58;;;;;;;;;0.33;0.00;;;;;12.62;100.00;99876.88;5035876;28;45402;-76
2023/04/12 08:26:25;;;;;;;;;0.00;0.00;;;;;12.68;100.00;99870.66;5036132;28;45574;-76
2023/04/12 08:28:50;;;;;;;;;0.00;0.00;;;;;12.76;100.00;99889.97;5035746;28;46331;-76
2023/04/12 08:31:16;;;;;;;;;0.00;0.00;;;;;12.67;100.00;99875.03;5035222;28;45443;-76
2023/04/12 08:33:42;;;;;;;;;2.00;0.00;;;;;12.70;100.00;99884.75;5030330;28;45342;-75
2023/04/12 08:36:07;;;;;;;;;0.00;0.00;;;;;12.68;100.00;99881.25;5024475;28;47498;-74
2023/04/12 08:38:33;;;;;;;;;0.00;0.00;;;;;12.69;100.00;99883.00;5032762;28;46427;-74
2023/04/12 08:41:02;;;;;;;;;0.00;0.00;;;;;12.66;100.00;99880.38;5035259;28;45280;-74
2023/04/12 08:43:28;;;;;;;;;0.33;0.00;;;;;12.65;100.00;99883.91;5026064;28;45434;-75
2023/04/12 08:45:54;;;;;;;;;1.00;0.00;;;;;12.60;100.00;99883.97;5020521;28;45525;-74
2023/04/12 08:48:21;;;;;;;;;0.00;0.00;;;;;12.54;100.00;99887.56;5020540;28;47416;-76
2023/04/12 08:50:48;;;;;;;;;1.00;0.00;;;;;12.57;100.00;99907.88;5027583;28;45545;-77
2023/04/12 08:53:13;;;;;;;;;2.33;0.00;;;;;12.53;100.00;99891.13;5019761;28;45523;-75
2023/04/12 08:55:39;;;;;;;;;0.00;0.00;;;;;12.49;100.00;99894.69;5037138;28;45455;-75
2023/04/12 08:58:06;;;;;;;;;1.00;0.00;;;;;12.44;100.00;99890.34;5035138;28;59693;-75
2023/04/12 09:00:32;;;;;;;;;0.00;0.00;;;;;12.47;100.00;99899.16;5025375;28;45261;-74
2023/04/12 09:02:58;;;;;;;;;0.00;0.00;;;;;12.50;100.00;99911.47;5032142;28;45514;-74
2023/04/12 09:05:30;;;;;;;;;0.00;0.00;;;;;12.44;100.00;99915.06;5029794;28;45433;-74
2023/04/12 09:07:56;;;;;;;;;1.33;0.00;;;;;12.37;100.00;99905.44;5027168;28;45698;-74
2023/04/12 09:10:36;;;;;;;;;0.00;0.00;;;;;12.35;100.00;99904.56;5015728;28;45547;-74
2023/04/12 09:13:05;;;;;;;;;1.00;0.00;;;;;12.39;100.00;99911.59;5032347;28;45309;-75
2023/04/12 09:15:32;;;;;;;;;0.00;0.00;;;;;12.44;100.00;99901.81;5036822;28;45480;-74
2023/04/12 09:18:09;;;;;;;;;0.00;0.00;;;;;12.51;100.00;99903.50;5037128;28;47038;-74
2023/04/12 09:20:35;;;;;;;;;0.00;0.00;;;;;12.67;100.00;99903.31;5037890;28;45434;-74
2023/04/12 09:23:01;;;;;;;;;0.00;0.00;;;;;12.88;100.00;99910.97;5037326;28;45474;-74
2023/04/12 09:25:44;;;;;;;;;0.00;0.00;;;;;13.03;100.00;99907.25;5037787;28;46318;-74
2023/04/12 09:28:19;;;;;;;;;0.00;0.00;;;;;13.08;100.00;99908.06;5035617;28;47441;-74
2023/04/12 09:30:50;;;;;;;;;0.00;0.00;;;;;13.07;100.00;99903.66;5034302;28;45423;-75
2023/04/12 09:33:22;;;;;;;;;0.00;0.00;;;;;13.00;100.00;99900.25;5032310;28;45430;-74
2023/04/12 09:35:48;;;;;;;;;1.00;0.00;;;;;12.98;100.00;99909.97;5012852;28;45622;-74
2023/04/12 09:38:14;;;;;;;;;0.00;0.00;;;;;12.98;100.00;99914.38;5014710;28;46120;-74
2023/04/12 09:40:40;;;;;;;;;4.00;0.00;;;;;13.03;100.00;99896.66;5034711;28;45394;-74
2023/04/12 09:43:06;;;;;;;;;0.00;0.00;;;;;13.17;100.00;99899.13;5021936;28;45442;-75
2023/04/12 09:45:37;;;;;;;;;1.00;0.00;;;;;13.32;100.00;99909.53;5034776;28;45431;-74
2023/04/12 09:48:03;;;;;;;;;0.00;0.00;;;;;13.36;100.00;99909.44;5024620;28;46825;-75
2023/04/12 09:50:31;;;;;;;;;0.33;0.00;;;;;13.38;100.00;99924.47;5030244;28;45612;-75
2023/04/12 09:52:58;;;;;;;;;0.00;0.00;;;;;13.41;100.00;99914.69;5036039;28;45495;-75
2023/04/12 09:55:25;;;;;;;;;0.00;0.00;;;;;13.42;100.00;99919.06;5036171;28;45460;-75
2023/04/12 09:57:52;;;;;;;;;0.00;0.00;;;;;13.43;100.00;99920.84;5035764;28;45655;-74
2023/04/12 10:00:21;;;;;;;;;1.00;0.00;;;;;13.42;100.00;99915.56;5036197;28;45411;-75
2023/04/12 10:02:50;;;;;;;;;0.67;0.00;;;;;13.30;100.00;99920.13;5037197;28;45320;-75
2023/04/12 10:05:17;;;;;;;;;0.00;0.00;;;;;13.26;100.00;99921.09;5037493;28;45276;-75
2023/04/12 10:07:43;;;;;;;;;0.00;0.00;;;;;13.32;100.00;99920.13;5018163;28;47939;-75
2023/04/12 10:10:11;;;;;;;;;1.00;0.00;;;;;13.49;100.00;99927.84;5036816;28;45257;-75
2023/04/12 10:12:37;;;;;;;;;0.00;0.00;;;;;13.68;100.00;99923.09;5035664;28;45164;-74
2023/04/12 10:15:11;;;;;;;;;0.00;0.00;;;;;13.86;100.00;99912.19;5035991;28;45515;-74
2023/04/12 10:17:41;;;;;;;;;0.00;0.00;;;;;14.04;100.00;99918.94;5033693;28;46785;-75
2023/04/12 10:20:07;;;;;;;;;0.00;0.00;;;;;14.09;100.00;99910.00;5038839;28;45416;-74
2023/04/12 10:22:32;;;;;;;;;0.00;0.00;;;;;14.10;100.00;99921.50;5139106;22;45367;-74
2023/04/12 10:24:58;;;;;;;;;0.00;0.00;;;;;14.11;100.00;99912.63;5038066;28;45395;-75
2023/04/12 10:27:25;;;;;;;;;0.00;0.00;;;;;14.11;100.00;99916.19;5032068;28;55443;-74
2023/04/12 10:29:50;;;;;;;;;3.33;0.00;;;;;14.08;100.00;99920.66;5036714;28;45286;-75
2023/04/12 10:32:21;;;;;;;;;0.00;0.00;;;;;14.06;100.00;99928.66;5036959;28;45482;-75
2023/04/12 10:34:57;;;;;;;;;2.00;0.00;;;;;14.00;100.00;99923.44;5034683;28;45645;-75
2023/04/12 10:38:01;;;;;;;;;1.00;0.00;;;;;13.96;100.00;99929.72;5036570;28;46745;-76
2023/04/12 10:40:28;;;;;;;;;0.00;0.00;;;;;13.92;100.00;99925.34;5032910;28;45389;-75
2023/04/12 10:43:18;;;;;;;;;0.00;0.00;;;;;14.00;100.00;99928.72;5034451;28;45296;-75
2023/04/12 10:45:44;;;;;;;;;0.00;0.00;;;;;14.10;100.00;99925.03;5023182;28;45480;-76
2023/04/12 10:48:29;;;;;;;;;1.33;0.33;;;;;14.14;100.00;99928.50;5036326;28;46716;-74
2023/04/12 10:51:22;;;;;;;;;1.00;0.00;;;;;14.18;100.00;99908.97;5036602;28;46103;-76
2023/04/12 10:53:48;;;;;;;;;0.00;0.00;;;;;14.27;100.00;99918.53;5036287;28;45297;-73
2023/04/12 10:56:28;;;;;;;;;0.00;0.00;;;;;14.43;100.00;99930.59;5036829;28;45257;-75
2023/04/12 10:58:54;;;;;;;;;0.00;0.00;;;;;14.56;100.00;99953.41;5033276;28;46926;-76
2023/04/12 11:01:20;;;;;;;;;0.00;0.00;;;;;14.71;100.00;99938.09;5035659;28;45420;-76
2023/04/12 11:04:07;;;;;;;;;1.67;1.00;;;;;14.68;100.00;99942.53;5034841;28;45349;-75
2023/04/12 11:06:51;;;;;;;;;0.00;0.00;;;;;14.64;100.00;99935.53;5031575;28;45550;-79
2023/04/12 11:09:36;;;;;;;;;0.00;0.00;;;;;14.63;100.00;99932.91;5031598;28;47251;-76
2023/04/12 11:12:04;;;;;;;;;1.33;0.00;;;;;14.62;100.00;99937.34;5030883;28;45593;-74
2023/04/12 11:14:34;;;;;;;;;0.00;0.00;;;;;14.56;100.00;99934.81;5030528;28;45475;-74
2023/04/12 11:17:05;;;;;;;;;2.33;0.00;;;;;14.66;100.00;99928.41;5010483;28;45595;-74
2023/04/12 11:19:41;;;;;;;;;0.00;0.00;;;;;14.75;100.00;99921.16;5031101;28;46398;-74
2023/04/12 11:22:08;;;;;;;;;0.00;0.00;;;;;14.85;100.00;99912.94;5029768;28;46188;-73
2023/04/12 11:24:37;;;;;;;;;0.33;0.00;;;;;14.90;100.00;99911.06;5010103;28;45607;-72